createdAt,value
2018-01-23T00:00:04.960Z,964.95
2018-01-23T00:15:06.149Z,965.16
2018-01-23T00:30:06.549Z,965.08
2018-01-23T00:45:08.586Z,965.33
2018-01-23T01:00:05.073Z,965.16
2018-01-23T01:15:08.312Z,965.19
2018-01-23T01:30:06.036Z,965.54
2018-01-23T01:45:05.780Z,966.08
2018-01-23T02:00:05.126Z,966.68
2018-01-23T02:15:05.259Z,966.68
2018-01-23T02:30:16.222Z,966.97
2018-01-23T02:45:08.225Z,967.76
2018-01-23T03:00:05.224Z,968.08
2018-01-23T03:15:06.196Z,968.65
2018-01-23T03:30:08.327Z,969.43
2018-01-23T03:45:04.848Z,970.21
2018-01-23T04:00:05.236Z,970.7
2018-01-23T04:15:12.085Z,970.59
2018-01-23T04:30:04.555Z,970.62
2018-01-23T04:45:04.626Z,970.72
2018-01-23T05:00:04.733Z,970.67
2018-01-23T05:15:05.704Z,970.7
2018-01-23T05:30:04.645Z,970.94
2018-01-23T05:45:05.088Z,971.29
2018-01-23T06:00:36.947Z,971.26
2018-01-23T06:15:04.889Z,971.43
2018-01-23T06:30:05.426Z,971.67
2018-01-23T06:45:04.885Z,971.86
2018-01-23T07:00:05.755Z,972.1
2018-01-23T07:15:04.703Z,972.13
2018-01-23T07:30:05.249Z,972.43
2018-01-23T07:45:04.603Z,972.56
2018-01-23T08:00:04.490Z,972.59
2018-01-23T08:15:04.429Z,972.64
2018-01-23T08:30:05.117Z,972.53
2018-01-23T08:45:05.213Z,972.51
2018-01-23T09:00:04.619Z,972.26
2018-01-23T09:15:04.563Z,972.4
2018-01-23T09:30:05.173Z,972.61
2018-01-23T09:45:05.104Z,972.32
2018-01-23T10:00:04.569Z,972.4
2018-01-23T10:15:04.644Z,972.43
2018-01-23T10:30:04.343Z,972.37
2018-01-23T10:45:05.247Z,972.51
2018-01-23T11:02:15.659Z,972.16
2018-01-23T11:15:08.231Z,972.07
2018-01-23T11:30:04.869Z,971.56
2018-01-23T11:45:04.370Z,971.24
2018-01-23T12:00:04.766Z,971.1
2018-01-23T12:15:04.665Z,971.35
2018-01-23T12:30:05.004Z,970.99
2018-01-23T12:45:04.418Z,970.91
2018-01-23T13:00:05.502Z,970.89
2018-01-23T13:15:04.947Z,970.4
2018-01-23T13:30:11.754Z,970.43
2018-01-23T13:45:08.265Z,970.18
2018-01-23T14:00:05.144Z,970.48
2018-01-23T14:15:05.062Z,970.86
2018-01-23T14:30:05.190Z,971.13
2018-01-23T14:45:04.609Z,971.29
2018-01-23T15:00:04.725Z,971.29
2018-01-23T15:15:04.727Z,971.13
2018-01-23T15:30:05.299Z,971.26
2018-01-23T15:45:04.772Z,971.53
2018-01-23T16:00:04.712Z,971.7
2018-01-23T16:15:04.696Z,971.94
2018-01-23T16:30:05.881Z,972.56
2018-01-23T16:45:05.260Z,972.8
2018-01-23T17:00:05.187Z,973.37
2018-01-23T17:15:04.622Z,973.91
2018-01-23T17:30:05.765Z,974.23
2018-01-23T17:45:05.329Z,974.48
2018-01-23T18:00:10.551Z,974.77
2018-01-23T18:15:05.301Z,975.13
2018-01-23T18:30:06.420Z,975.26
2018-01-23T18:45:05.201Z,975.75
2018-01-23T19:00:05.313Z,976.18
2018-01-23T19:15:04.764Z,976.45
2018-01-23T19:30:04.380Z,976.66
2018-01-23T19:45:05.233Z,969.34
2018-01-23T20:00:14.827Z,969.39
2018-01-23T20:15:08.429Z,969.82
2018-01-23T20:30:08.141Z,969.77
2018-01-23T20:45:04.494Z,970.06
2018-01-23T21:00:04.579Z,970.22
2018-01-23T21:15:04.637Z,969.87
2018-01-23T21:30:05.162Z,969.69
2018-01-23T21:45:04.806Z,969.45
2018-01-23T22:00:05.629Z,969.53
2018-01-23T22:15:11.232Z,976.93
2018-01-23T22:30:04.710Z,969.55
2018-01-23T22:45:05.077Z,976.69
2018-01-23T23:00:04.461Z,976.93
2018-01-23T23:15:04.909Z,977.02
2018-01-23T23:30:04.611Z,976.96
2018-01-23T23:45:04.966Z,976.75
